Terminal Aerodrome Forecast
Issued by NWS Wilmington, NC

Home | Current Version | Previous Version | Text Only | Print | Product List | Glossary On
Versions: 1 2 3 4 5 6 7 8 9 10 11 12 13 14 15 16 17 18 19 20 21 22 23 24 25 26 27 28
000
FTUS42 KILM 032300
TAFILM
TAF
KILM 032320Z 0400/0424 06005KT 2SM -DZ BR BKN005 OVC015
     FM040400 20006KT 2SM BR VCSH BKN006 BKN100
     FM041500 22013G21KT 6SM BR BKN009
     FM041800 22013G20KT P6SM BKN016=

USA.gov is the U.S. government's official web portal to all federal, state and local government web resources and services.